Time;durP1;ratioP1;P1;durP2;ratioP2;P2;SDS_P1;SDS_P2;PMS_P1;PMS_P2;Temp;Humidity;BMP_temperature;BMP_pressure;BME280_temperature;BME280_humidity;BME280_pressure;Samples;Min_cycle;Max_cycle;Signal;HPM_P1;HPM_P2
2024/04/15 00:00:05;;;;;;;23.30;5.30;;;;;;;18.51;43.99;98743.93;67957;1276;1017373;-67
2024/04/15 00:03:07;;;;;;;16.70;4.00;;;;;;;18.37;43.75;98738.67;67928;1276;1016068;-68
2024/04/15 00:06:10;;;;;;;20.00;5.10;;;;;;;18.44;44.10;98734.28;67890;1276;1016282;-68
2024/04/15 00:09:12;;;;;;;;;;;;;;;18.44;44.00;98731.88;67925;1276;1016373;-66
2024/04/15 00:12:14;;;;;;;25.00;4.90;;;;;;;18.36;44.22;98737.50;67885;1276;1016518;-67
2024/04/15 00:15:17;;;;;;;17.40;4.60;;;;;;;18.31;44.37;98741.86;67915;1276;1016467;-69
2024/04/15 00:18:19;;;;;;;16.30;3.60;;;;;;;18.22;44.69;98739.35;67891;1276;1016680;-69
2024/04/15 00:21:21;;;;;;;17.90;3.60;;;;;;;18.15;44.82;98726.59;67919;1276;1016924;-68
2024/04/15 00:24:23;;;;;;;18.10;3.80;;;;;;;18.16;44.66;98724.69;67920;1276;1016292;-68
2024/04/15 00:27:25;;;;;;;17.80;3.90;;;;;;;18.23;44.30;98716.12;67910;1276;1018347;-67
2024/04/15 00:30:28;;;;;;;19.30;3.10;;;;;;;18.30;44.17;98715.14;67916;1276;1019551;-68
2024/04/15 00:33:30;;;;;;;14.80;3.40;;;;;;;18.35;44.06;98718.33;67915;1276;1017235;-69
2024/04/15 00:36:32;;;;;;;22.90;5.40;;;;;;;18.39;44.02;98714.23;67888;1276;1017216;-68
2024/04/15 00:39:35;;;;;;;23.00;5.00;;;;;;;18.29;45.08;98705.17;67901;1276;1016600;-67
2024/04/15 00:42:37;;;;;;;24.30;7.50;;;;;;;18.17;45.41;98692.25;67915;1276;1018900;-68
2024/04/15 00:45:39;;;;;;;33.10;10.00;;;;;;;18.17;45.07;98687.84;67909;1276;1016507;-69
2024/04/15 00:48:42;;;;;;;37.00;10.60;;;;;;;18.14;45.03;98689.58;67920;1276;1016573;-69
2024/04/15 00:51:45;;;;;;;22.10;5.20;;;;;;;18.06;45.35;98692.25;67881;1276;1016171;-66
2024/04/15 00:54:47;;;;;;;22.60;5.60;;;;;;;18.06;45.40;98686.95;67873;1276;1016294;-69
2024/04/15 00:57:49;;;;;;;29.70;7.30;;;;;;;18.00;45.51;98686.21;67939;1276;1018864;-68
2024/04/15 01:00:51;;;;;;;28.00;7.60;;;;;;;18.05;45.47;98685.23;67927;1276;1016457;-68
2024/04/15 01:03:54;;;;;;;29.10;8.20;;;;;;;18.14;45.28;98678.51;67927;1276;1015969;-69
2024/04/15 01:06:56;;;;;;;22.60;5.60;;;;;;;18.03;46.15;98666.70;67926;1276;1016228;-69
2024/04/15 01:09:58;;;;;;;24.10;5.80;;;;;;;17.94;46.02;98670.14;67887;1276;1019134;-68
2024/04/15 01:13:01;;;;;;;18.30;4.80;;;;;;;18.00;45.98;98663.39;67893;1276;1017141;-66
2024/04/15 01:16:03;;;;;;;21.40;4.30;;;;;;;18.07;46.22;98665.42;67896;1276;1016062;-68
2024/04/15 01:19:06;;;;;;;19.90;4.50;;;;;;;18.13;46.23;98662.51;67894;1276;1016284;-68
2024/04/15 01:22:09;;;;;;;28.60;7.00;;;;;;;18.18;46.31;98658.73;67904;1276;1016436;-69
2024/04/15 01:25:11;;;;;;;21.30;5.10;;;;;;;18.23;46.33;98650.46;67892;1276;1015704;-68
2024/04/15 01:28:17;;;;;;;16.20;3.40;;;;;;;18.20;46.31;98640.73;67897;1276;1016039;-65
2024/04/15 01:31:19;;;;;;;22.30;4.30;;;;;;;18.26;46.19;98631.47;67899;1276;1016321;-68
2024/04/15 01:34:22;;;;;;;17.20;3.80;;;;;;;18.23;46.11;98632.59;67900;1276;1018495;-68
2024/04/15 01:37:24;;;;;;;18.10;3.80;;;;;;;18.12;46.41;98628.02;67888;1276;1016335;-67
2024/04/15 01:40:26;;;;;;;15.80;3.80;;;;;;;18.09;46.61;98630.55;67922;1276;1018314;-67
2024/04/15 01:43:28;;;;;;;20.00;4.00;;;;;;;18.13;46.41;98624.69;67958;1276;1016478;-69
2024/04/15 01:46:31;;;;;;;18.70;3.70;;;;;;;18.16;46.47;98619.30;67933;1276;1018730;-68
2024/04/15 01:49:33;;;;;;;16.60;3.70;;;;;;;18.15;46.48;98619.88;67857;1276;1016236;-69
2024/04/15 01:52:36;;;;;;;18.30;3.40;;;;;;;18.22;46.52;98609.19;67905;1276;1017096;-66
2024/04/15 01:55:38;;;;;;;16.20;3.40;;;;;;;18.19;46.60;98595.86;67930;1276;1016065;-68
2024/04/15 01:58:40;;;;;;;17.30;3.50;;;;;;;18.17;46.64;98588.02;67910;1276;1016570;-69
2024/04/15 02:01:42;;;;;;;14.80;3.30;;;;;;;18.04;46.84;98581.02;67927;1276;1016264;-69
2024/04/15 02:04:44;;;;;;;11.30;3.10;;;;;;;17.98;46.87;98570.58;67921;1276;1016233;-67
2024/04/15 02:07:47;;;;;;;14.40;3.30;;;;;;;17.90;47.04;98559.44;67925;1276;1018692;-69
2024/04/15 02:10:49;;;;;;;17.60;3.30;;;;;;;17.79;47.28;98551.79;67914;1276;1016437;-68
2024/04/15 02:13:51;;;;;;;19.30;3.40;;;;;;;17.73;47.40;98541.08;67910;1276;1016733;-69
2024/04/15 02:16:54;;;;;;;17.40;4.70;;;;;;;17.52;47.57;98541.41;67894;1276;1016421;-68
2024/04/15 02:19:56;;;;;;;14.50;3.40;;;;;;;17.43;47.79;98539.49;67891;1276;1016418;-68
2024/04/15 02:22:58;;;;;;;17.80;3.70;;;;;;;17.43;47.72;98530.42;67882;1276;1016306;-68
2024/04/15 02:26:00;;;;;;;16.80;3.40;;;;;;;17.44;47.83;98524.34;67893;1276;1018214;-69
2024/04/15 02:29:03;;;;;;;17.80;3.60;;;;;;;17.42;48.05;98517.36;67928;1276;1016152;-69
2024/04/15 02:32:05;;;;;;;16.30;3.50;;;;;;;17.48;48.08;98511.80;67929;1276;1016457;-68
2024/04/15 02:35:07;;;;;;;18.20;4.00;;;;;;;17.48;47.99;98500.61;67955;1276;1016417;-68
2024/04/15 02:38:10;;;;;;;14.10;3.20;;;;;;;17.42;48.29;98491.45;67931;1276;1016350;-68
2024/04/15 02:41:12;;;;;;;14.70;3.50;;;;;;;17.34;48.46;98488.02;67888;1276;1017264;-69
2024/04/15 02:44:14;;;;;;;20.00;3.90;;;;;;;17.28;48.61;98486.77;67890;1276;1016246;-69
2024/04/15 02:47:16;;;;;;;17.60;3.50;;;;;;;17.24;48.63;98485.70;67898;1276;1018572;-67
2024/04/15 02:50:19;;;;;;;23.00;4.10;;;;;;;17.23;48.82;98478.27;67920;1276;1016537;-69
2024/04/15 02:53:21;;;;;;;18.40;4.80;;;;;;;17.24;48.96;98476.04;67925;1276;1016460;-68
2024/04/15 02:56:23;;;;;;;17.00;3.40;;;;;;;17.30;48.81;98469.14;67920;1276;1016472;-68
2024/04/15 02:59:26;;;;;;;24.90;3.90;;;;;;;17.38;48.91;98467.30;67923;1276;1016228;-69
2024/04/15 03:02:29;;;;;;;15.70;3.90;;;;;;;17.46;48.98;98464.60;67907;1276;1016174;-68
2024/04/15 03:05:31;;;;;;;;;;;;;;;17.48;48.85;98461.73;67912;1276;1016455;-69
2024/04/15 03:08:33;;;;;;;17.50;4.10;;;;;;;17.55;49.06;98459.70;67940;1276;1016563;-68
2024/04/15 03:11:35;;;;;;;18.60;4.20;;;;;;;17.61;49.52;98460.20;67942;1276;1015999;-65
2024/04/15 03:14:38;;;;;;;20.50;4.00;;;;;;;17.56;49.13;98452.48;67959;1276;1016283;-65
2024/04/15 03:17:40;;;;;;;20.00;4.50;;;;;;;17.46;49.49;98446.02;67926;1276;1016437;-68
2024/04/15 03:20:42;;;;;;;13.50;3.20;;;;;;;17.51;49.58;98446.85;67925;1276;1016516;-68
2024/04/15 03:23:44;;;;;;;21.80;3.80;;;;;;;17.48;49.70;98454.48;67906;1276;1016441;-66
2024/04/15 03:26:46;;;;;;;21.60;3.90;;;;;;;17.43;49.81;98461.54;67917;1276;1016431;-68
2024/04/15 03:29:49;;;;;;;18.20;4.30;;;;;;;17.41;49.79;98460.15;67903;1276;1016317;-67
2024/04/15 03:32:51;;;;;;;17.00;3.80;;;;;;;17.39;50.19;98450.95;67892;1276;1016384;-68
2024/04/15 03:35:53;;;;;;;15.30;3.50;;;;;;;17.33;50.33;98435.70;67917;1276;1016457;-69
2024/04/15 03:38:55;;;;;;;23.00;4.70;;;;;;;17.31;49.94;98429.66;67945;1276;1016199;-68
2024/04/15 03:41:57;;;;;;;17.00;3.90;;;;;;;17.14;50.10;98426.61;67947;1276;1016473;-66
2024/04/15 03:45:00;;;;;;;21.80;4.60;;;;;;;17.20;50.05;98434.59;67920;1276;1016382;-69
2024/04/15 03:48:02;;;;;;;18.10;4.30;;;;;;;17.29;50.32;98438.80;67930;1276;1016471;-69
2024/04/15 03:51:04;;;;;;;17.10;4.40;;;;;;;17.41;50.05;98431.02;67903;1274;1016411;-68
2024/04/15 03:54:06;;;;;;;15.90;3.90;;;;;;;17.50;49.81;98422.15;65349;1276;5394909;-69
2024/04/15 03:57:09;;;;;;;15.40;4.40;;;;;;;17.51;49.78;98419.21;67900;1276;1016435;-68
2024/04/15 04:00:11;;;;;;;16.50;4.20;;;;;;;17.51;49.89;98403.35;67892;1276;1016664;-68
2024/04/15 04:03:14;;;;;;;18.10;4.10;;;;;;;17.49;50.03;98392.61;67937;1276;1016106;-68
2024/04/15 04:06:18;;;;;;;30.10;10.20;;;;;;;17.40;50.29;98383.73;67893;1276;1016402;-68
2024/04/15 04:09:21;;;;;;;38.70;12.60;;;;;;;17.42;50.72;98366.41;67912;1276;1016545;-68
2024/04/15 04:12:23;;;;;;;31.50;9.00;;;;;;;17.42;50.65;98375.23;67927;1276;1016973;-68
2024/04/15 04:15:25;;;;;;;34.60;9.70;;;;;;;17.47;50.34;98374.19;67923;1276;1016338;-68
2024/04/15 04:18:28;;;;;;;19.30;4.90;;;;;;;17.51;50.23;98380.14;67938;1276;1016357;-68
2024/04/15 04:21:30;;;;;;;20.00;4.50;;;;;;;17.71;50.19;98381.65;67931;1276;1016444;-68
2024/04/15 04:24:32;;;;;;;15.90;4.90;;;;;;;17.62;49.92;98371.38;67948;1276;1016448;-68
2024/04/15 04:27:34;;;;;;;18.00;4.90;;;;;;;17.51;50.28;98369.05;67933;1276;1016398;-68
2024/04/15 04:30:36;;;;;;;18.20;4.10;;;;;;;17.41;50.68;98357.42;67899;1276;1015930;-69
2024/04/15 04:33:39;;;;;;;17.60;4.10;;;;;;;17.33;50.77;98349.91;67913;1276;1016474;-68
2024/04/15 04:36:41;;;;;;;29.10;5.80;;;;;;;17.29;50.68;98346.89;67905;1276;1016466;-68
2024/04/15 04:39:43;;;;;;;20.10;4.90;;;;;;;17.29;50.65;98364.58;67919;1276;1015884;-68
2024/04/15 04:42:46;;;;;;;21.60;5.30;;;;;;;17.35;50.75;98355.77;67914;1276;1016322;-66
2024/04/15 04:45:48;;;;;;;17.80;4.40;;;;;;;17.35;50.64;98348.82;67933;1276;1016563;-66
2024/04/15 04:48:51;;;;;;;16.60;4.30;;;;;;;17.34;50.57;98343.60;67926;1276;1015972;-69
2024/04/15 04:51:53;;;;;;;14.90;3.80;;;;;;;17.34;50.83;98335.65;67902;1276;1016171;-69
2024/04/15 04:54:55;;;;;;;15.70;3.70;;;;;;;17.37;50.94;98321.13;67899;1276;1016427;-69
2024/04/15 04:57:57;;;;;;;15.90;4.60;;;;;;;17.18;50.94;98317.41;67910;1274;1016340;-67
2024/04/15 05:00:59;;;;;;;18.80;4.40;;;;;;;17.10;51.13;98327.16;67918;1276;1018633;-68
2024/04/15 05:04:03;;;;;;;15.50;3.70;;;;;;;17.09;51.30;98304.89;67917;1276;1016874;-69
2024/04/15 05:07:05;;;;;;;14.80;4.10;;;;;;;17.05;51.13;98303.15;67903;1276;1019434;-67
2024/04/15 05:10:07;;;;;;;17.70;4.70;;;;;;;17.05;51.40;98315.87;67888;1276;1016141;-68
2024/04/15 05:13:10;;;;;;;18.20;4.20;;;;;;;16.98;51.68;98311.08;67887;1276;1016466;-65
2024/04/15 05:16:12;;;;;;;19.20;4.10;;;;;;;16.81;51.97;98330.77;67908;1276;1016611;-67
2024/04/15 05:19:14;;;;;;;16.20;4.00;;;;;;;16.73;52.24;98324.34;67927;1276;1016287;-67
2024/04/15 05:22:16;;;;;;;19.60;4.00;;;;;;;16.61;52.74;98347.64;67951;1276;1016468;-69
2024/04/15 05:25:19;;;;;;;18.60;4.60;;;;;;;16.67;52.59;98366.55;67954;1276;1016393;-68
2024/04/15 05:28:21;;;;;;;;;;;;;;;16.75;51.82;98373.70;67929;1276;1016501;-68
2024/04/15 05:31:23;;;;;;;18.80;4.60;;;;;;;16.56;51.95;98403.70;67897;1276;1015534;-68
2024/04/15 05:34:26;;;;;;;15.80;3.60;;;;;;;16.48;51.34;98406.91;67908;1276;1018122;-69
2024/04/15 05:37:28;;;;;;;19.80;4.00;;;;;;;16.25;50.41;98423.09;67871;1276;1017987;-67
2024/04/15 05:40:30;;;;;;;19.20;3.30;;;;;;;16.15;50.63;98434.45;67887;1276;1016962;-68
2024/04/15 05:43:32;;;;;;;14.30;3.20;;;;;;;16.09;50.59;98440.98;67914;1276;1016400;-67
2024/04/15 05:46:35;;;;;;;14.30;3.10;;;;;;;16.04;50.42;98466.32;67941;1276;1016290;-68
2024/04/15 05:49:37;;;;;;;13.30;3.00;;;;;;;15.93;50.51;98498.44;67944;1276;1016500;-69
2024/04/15 05:52:40;;;;;;;18.40;3.30;;;;;;;15.71;51.34;98513.80;67925;1276;1016526;-67
2024/04/15 05:55:42;;;;;;;14.90;3.10;;;;;;;15.54;51.58;98512.19;67901;1276;1016495;-69
2024/04/15 05:58:44;;;;;;;15.10;3.20;;;;;;;15.52;51.78;98504.35;67902;1276;1016504;-68
2024/04/15 06:01:46;;;;;;;11.30;3.20;;;;;;;15.60;52.34;98509.48;67935;1276;1016436;-69
2024/04/15 06:04:50;;;;;;;17.00;3.50;;;;;;;15.78;52.54;98514.06;67927;1276;1016406;-67
2024/04/15 06:07:53;;;;;;;15.40;3.30;;;;;;;15.79;52.15;98513.27;67900;1276;1016492;-68
2024/04/15 06:10:55;;;;;;;17.40;3.60;;;;;;;15.89;52.14;98519.84;67936;1276;1016391;-69
2024/04/15 06:13:57;;;;;;;19.30;3.40;;;;;;;15.92;51.55;98517.23;67933;1276;1016383;-68
2024/04/15 06:17:00;;;;;;;16.80;3.60;;;;;;;15.59;52.28;98501.77;67917;1276;1016254;-68
2024/04/15 06:20:03;;;;;;;19.40;3.70;;;;;;;15.55;52.81;98495.39;67942;1276;1015912;-68
2024/04/15 06:23:06;;;;;;;15.30;3.50;;;;;;;15.64;52.49;98495.52;67933;1276;1016516;-68
2024/04/15 06:26:08;;;;;;;17.60;3.60;;;;;;;15.68;52.83;98486.02;67890;1276;1017329;-68
2024/04/15 06:29:10;;;;;;;20.00;3.80;;;;;;;15.53;52.99;98472.66;67924;1276;1015893;-69
2024/04/15 06:32:12;;;;;;;418.90;146.70;;;;;;;15.48;53.46;98463.79;67881;1254;1016261;-68
2024/04/15 06:35:15;;;;;;;373.80;136.90;;;;;;;15.41;53.47;98465.63;67948;1276;1016503;-68
2024/04/15 06:38:17;;;;;;;161.30;56.30;;;;;;;15.43;53.21;98463.96;67948;1276;1016484;-68
2024/04/15 06:41:19;;;;;;;30.00;7.20;;;;;;;15.46;53.48;98456.77;67959;1276;1016647;-66
2024/04/15 06:44:21;;;;;;;21.10;5.00;;;;;;;15.41;53.51;98446.23;67906;1276;1016494;-67
2024/04/15 06:47:24;;;;;;;21.50;3.90;;;;;;;15.38;53.98;98449.48;67933;1276;1016749;-68
2024/04/15 06:50:26;;;;;;;19.40;4.40;;;;;;;15.41;53.71;98458.17;67909;1276;1018691;-68
2024/04/15 06:53:28;;;;;;;21.30;4.70;;;;;;;15.38;53.55;98456.85;67927;1276;1016440;-68
2024/04/15 06:56:31;;;;;;;20.10;4.50;;;;;;;15.44;54.08;98430.77;67901;1276;1016267;-68
2024/04/15 06:59:33;;;;;;;19.50;3.40;;;;;;;15.69;54.34;98403.78;67949;1276;1016708;-68
2024/04/15 07:02:35;;;;;;;17.20;3.80;;;;;;;16.06;54.08;98392.95;67925;1276;1016500;-67
2024/04/15 07:05:37;;;;;;;16.50;3.40;;;;;;;16.22;53.88;98385.83;67947;1276;1016369;-68
2024/04/15 07:08:40;;;;;;;17.90;3.90;;;;;;;16.29;53.81;98382.92;67933;1276;1016744;-67
2024/04/15 07:11:42;;;;;;;15.70;3.20;;;;;;;16.28;53.54;98380.55;67917;1276;1016162;-68
2024/04/15 07:14:44;;;;;;;17.30;3.80;;;;;;;16.17;53.44;98373.46;67901;1276;1016382;-68
2024/04/15 07:17:46;;;;;;;19.30;4.10;;;;;;;16.16;53.63;98380.98;67923;1276;1016445;-67
2024/04/15 07:20:49;;;;;;;17.50;3.60;;;;;;;16.29;53.28;98386.60;67916;1276;1016103;-67
2024/04/15 07:23:51;;;;;;;16.90;3.40;;;;;;;16.50;52.94;98394.63;67915;1276;1016568;-68
2024/04/15 07:26:53;;;;;;;17.70;3.90;;;;;;;16.43;52.73;98392.55;67922;1276;1018890;-68
2024/04/15 07:29:56;;;;;;;21.00;3.60;;;;;;;16.33;52.89;98385.37;67932;1276;1016441;-68
2024/04/15 07:32:59;;;;;;;17.00;3.60;;;;;;;16.18;53.63;98383.73;67913;1276;1016531;-67
2024/04/15 07:36:01;;;;;;;25.60;8.90;;;;;;;16.23;53.15;98390.64;67888;1276;1016419;-68
2024/04/15 07:39:03;;;;;;;45.70;22.70;;;;;;;16.18;53.16;98385.88;67938;1276;1016189;-68
2024/04/15 07:42:06;;;;;;;21.60;5.40;;;;;;;16.03;53.34;98388.42;67967;1276;1016196;-68
2024/04/15 07:45:08;;;;;;;18.50;5.40;;;;;;;16.03;53.87;98395.48;67951;1276;1015985;-68
2024/04/15 07:48:10;;;;;;;24.50;7.20;;;;;;;16.13;53.52;98395.29;67937;1276;1016666;-68
2024/04/15 07:51:13;;;;;;;17.80;4.20;;;;;;;16.03;53.47;98393.77;67924;1276;1015997;-69
2024/04/15 07:54:15;;;;;;;20.10;3.80;;;;;;;15.95;53.57;98402.92;67909;1276;1016151;-68
2024/04/15 07:57:17;;;;;;;16.10;3.60;;;;;;;15.97;53.58;98405.92;67873;1276;1016314;-68
2024/04/15 08:00:19;;;;;;;16.40;3.60;;;;;;;15.93;53.73;98394.27;67918;1276;1016981;-67
2024/04/15 08:03:21;;;;;;;21.70;4.60;;;;;;;15.86;54.12;98377.94;67918;1276;1016713;-68
2024/04/15 08:06:24;;;;;;;16.80;4.40;;;;;;;15.80;54.30;98369.52;67924;1276;1016193;-68
2024/04/15 08:09:26;;;;;;;16.60;4.10;;;;;;;15.77;54.59;98365.89;67919;1276;1017145;-68
2024/04/15 08:12:28;;;;;;;25.20;5.90;;;;;;;15.88;54.92;98361.59;67953;1276;1016180;-69
2024/04/15 08:15:32;;;;;;;21.10;5.60;;;;;;;15.91;54.27;98357.63;67880;1276;1016366;-67
2024/04/15 08:18:35;;;;;;;24.30;5.40;;;;;;;15.70;55.06;98370.58;67824;1276;1016334;-69
2024/04/15 08:21:37;;;;;;;43.90;12.50;;;;;;;15.47;55.35;98365.92;67906;1276;1016921;-68
2024/04/15 08:24:40;;;;;;;42.30;13.10;;;;;;;15.47;55.80;98355.32;67904;1276;1016576;-67
2024/04/15 08:27:42;;;;;;;38.30;11.00;;;;;;;15.51;56.27;98343.69;67903;1276;1017632;-69
2024/04/15 08:30:44;;;;;;;40.00;12.20;;;;;;;15.51;56.30;98353.21;67931;1276;1016441;-68
2024/04/15 08:33:47;;;;;;;84.80;28.40;;;;;;;15.57;56.12;98360.95;67939;1276;1016973;-68
2024/04/15 08:36:50;;;;;;;35.20;10.00;;;;;;;15.73;55.97;98364.79;67854;1276;1016504;-66
2024/04/15 08:39:52;;;;;;;20.40;5.90;;;;;;;15.85;55.51;98362.40;67917;1276;1016623;-68
2024/04/15 08:42:54;;;;;;;21.20;4.80;;;;;;;15.83;55.08;98359.58;67909;1276;1016462;-67
2024/04/15 08:45:56;;;;;;;26.70;6.20;;;;;;;15.74;55.28;98353.49;67923;1276;1016317;-69
2024/04/15 08:48:59;;;;;;;21.10;5.10;;;;;;;15.83;54.55;98362.70;67934;1276;1016412;-68
2024/04/15 08:52:01;;;;;;;19.40;5.10;;;;;;;15.98;54.46;98359.63;67928;1276;1016208;-68
2024/04/15 08:55:04;;;;;;;21.40;6.50;;;;;;;16.02;54.16;98355.54;67925;1276;1016500;-69
2024/04/15 08:58:06;;;;;;;26.00;8.30;;;;;;;16.14;54.32;98360.29;67933;1276;1016381;-69
2024/04/15 09:01:09;;;;;;;34.30;10.30;;;;;;;16.19;53.77;98360.67;67921;1276;1016442;-69
2024/04/15 09:04:11;;;;;;;19.30;4.40;;;;;;;16.23;53.50;98362.48;67979;1276;1017105;-68
2024/04/15 09:07:14;;;;;;;21.10;4.40;;;;;;;16.36;53.34;98353.14;67901;1276;1016239;-69
2024/04/15 09:10:16;;;;;;;27.70;6.40;;;;;;;16.45;53.53;98348.95;67924;1276;1016948;-68
2024/04/15 09:13:18;;;;;;;35.70;9.70;;;;;;;16.57;53.11;98350.03;67939;1276;1016445;-68
2024/04/15 09:16:21;;;;;;;26.90;6.30;;;;;;;16.67;53.33;98345.54;67943;1276;1016509;-68
2024/04/15 09:19:23;;;;;;;18.30;4.40;;;;;;;16.75;52.74;98333.86;67941;1276;1016486;-68
2024/04/15 09:22:25;;;;;;;21.20;4.80;;;;;;;16.80;52.21;98343.60;67906;1276;1016534;-68
2024/04/15 09:25:27;;;;;;;16.80;4.00;;;;;;;16.85;52.29;98342.41;67936;1276;1016394;-68
2024/04/15 09:28:30;;;;;;;28.90;6.50;;;;;;;16.94;51.80;98327.30;67890;1276;1016441;-67
2024/04/15 09:31:32;;;;;;;18.20;4.00;;;;;;;17.09;51.53;98325.36;67914;1276;1018698;-68
2024/04/15 09:34:34;;;;;;;23.40;6.00;;;;;;;16.91;51.35;98321.52;67907;1276;1016387;-68
2024/04/15 09:37:36;;;;;;;19.00;4.00;;;;;;;16.88;51.67;98319.33;67935;1276;1016370;-68
2024/04/15 09:40:39;;;;;;;22.40;4.40;;;;;;;17.02;51.34;98329.80;67941;1276;1016461;-68
2024/04/15 09:43:41;;;;;;;19.10;4.00;;;;;;;16.95;51.00;98346.14;67950;1276;1016452;-68
2024/04/15 09:46:43;;;;;;;25.20;5.40;;;;;;;16.89;50.37;98343.49;67936;1276;1016527;-67
2024/04/15 09:49:46;;;;;;;37.00;10.10;;;;;;;16.84;50.92;98345.52;67923;1276;1017433;-68
2024/04/15 09:52:48;;;;;;;23.40;5.60;;;;;;;16.92;50.38;98350.83;67950;1276;1016442;-68
2024/04/15 09:55:51;;;;;;;;;;;;;;;16.89;50.62;98350.92;67922;1276;1016589;-66
2024/04/15 09:58:55;;;;;;;40.70;13.30;;;;;;;16.91;50.27;98346.80;67957;1276;1016463;-67
2024/04/15 10:01:57;;;;;;;21.40;4.90;;;;;;;16.95;49.97;98338.66;67888;1276;1016872;-68
2024/04/15 10:04:59;;;;;;;34.50;7.40;;;;;;;16.85;50.47;98331.35;67923;1276;1016720;-68
2024/04/15 10:08:02;;;;;;;21.10;4.80;;;;;;;16.79;50.07;98323.23;67910;1276;1017609;-68
2024/04/15 10:11:04;;;;;;;25.10;6.20;;;;;;;16.90;50.52;98314.05;67925;1276;1016525;-69
2024/04/15 10:14:06;;;;;;;15.90;3.90;;;;;;;17.12;50.16;98303.86;67881;1276;1016407;-69
2024/04/15 10:17:08;;;;;;;21.70;5.00;;;;;;;17.25;49.69;98299.27;67920;1276;1016463;-69
2024/04/15 10:20:11;;;;;;;26.20;7.40;;;;;;;17.28;49.54;98296.38;67921;1276;1018548;-67
2024/04/15 10:23:13;;;;;;;19.70;5.20;;;;;;;17.25;50.12;98285.83;67979;1276;1016538;-68
2024/04/15 10:26:15;;;;;;;34.30;15.50;;;;;;;17.57;49.24;98279.52;67918;1276;1016752;-68
2024/04/15 10:29:18;;;;;;;23.80;6.90;;;;;;;17.72;49.24;98279.71;67930;1276;1016388;-68
2024/04/15 10:32:20;;;;;;;24.90;5.00;;;;;;;17.66;48.65;98278.98;67899;1276;1016430;-67
2024/04/15 10:35:22;;;;;;;20.00;4.60;;;;;;;17.60;48.71;98278.02;67917;1276;1016394;-66
2024/04/15 10:38:24;;;;;;;39.10;11.60;;;;;;;17.62;48.61;98273.27;67917;1276;1018985;-69
2024/04/15 10:41:27;;;;;;;26.80;6.40;;;;;;;17.62;48.84;98267.70;67909;1276;1016421;-68
2024/04/15 10:44:29;;;;;;;29.10;8.00;;;;;;;17.61;48.53;98259.90;67929;1276;1015844;-68
2024/04/15 10:47:31;;;;;;;26.60;8.00;;;;;;;17.60;48.80;98262.30;67952;1276;1019837;-67
2024/04/15 10:50:33;;;;;;;21.80;5.50;;;;;;;17.67;48.68;98269.02;67967;1276;1016447;-68
2024/04/15 10:53:35;;;;;;;20.30;4.90;;;;;;;17.71;48.48;98273.42;67924;1276;1019587;-68
2024/04/15 10:56:38;;;;;;;23.10;5.30;;;;;;;17.72;48.24;98269.27;67959;1276;1018887;-69
2024/04/15 10:59:40;;;;;;;36.10;9.30;;;;;;;17.75;48.20;98268.05;67893;1276;1016448;-67
2024/04/15 11:02:42;;;;;;;22.50;5.00;;;;;;;17.87;48.28;98260.85;67897;1276;1018830;-66
2024/04/15 11:05:45;;;;;;;22.60;5.50;;;;;;;18.08;48.00;98257.58;67901;1276;1016974;-68
2024/04/15 11:08:47;;;;;;;;;;;;;;;18.28;47.81;98259.06;67923;1276;1018042;-68
2024/04/15 11:11:49;;;;;;;23.30;6.80;;;;;;;18.42;47.26;98259.21;67954;1276;1016545;-68
2024/04/15 11:14:51;;;;;;;23.60;5.80;;;;;;;18.47;47.41;98260.44;67939;1276;1018388;-68
2024/04/15 11:17:54;;;;;;;24.40;5.40;;;;;;;18.47;47.16;98254.96;67921;1276;1016112;-68
2024/04/15 11:20:56;;;;;;;21.50;4.50;;;;;;;18.42;46.96;98251.60;67907;1276;1019512;-69
2024/04/15 11:23:58;;;;;;;19.10;4.60;;;;;;;18.35;46.75;98252.17;67893;1276;1016326;-68
2024/04/15 11:27:00;;;;;;;21.20;4.80;;;;;;;18.52;46.93;98249.30;67897;1276;1016160;-67
2024/04/15 11:30:03;;;;;;;20.50;4.50;;;;;;;18.84;46.98;98252.27;67890;1276;1016070;-68
2024/04/15 11:33:05;;;;;;;79.90;21.30;;;;;;;19.25;46.01;98250.33;67926;1276;1016356;-68
2024/04/15 11:36:07;;;;;;;23.10;4.70;;;;;;;19.11;46.24;98242.95;67922;1276;1016525;-68
2024/04/15 11:39:09;;;;;;;20.80;5.20;;;;;;;19.16;46.07;98232.95;67948;1276;1016168;-68
2024/04/15 11:42:13;;;;;;;21.70;5.50;;;;;;;19.38;46.42;98222.86;67935;1276;1016401;-67
2024/04/15 11:45:15;;;;;;;22.70;5.80;;;;;;;19.42;46.10;98213.91;67942;1276;1016039;-68
2024/04/15 11:48:17;;;;;;;19.80;5.00;;;;;;;19.56;45.39;98209.17;67914;1276;1016374;-68
2024/04/15 11:51:20;;;;;;;22.00;5.50;;;;;;;19.59;45.14;98205.59;67929;1276;1016821;-67
2024/04/15 11:54:22;;;;;;;18.50;3.60;;;;;;;19.71;44.84;98199.83;67938;1276;1016025;-68
2024/04/15 11:57:24;;;;;;;19.50;4.00;;;;;;;19.68;44.49;98191.49;67906;1276;1016434;-68
2024/04/15 12:00:27;;;;;;;;;;;;;;;19.65;44.40;98193.33;67893;1276;1016399;-68
2024/04/15 12:03:29;;;;;;;14.90;3.20;;;;;;;19.57;44.23;98189.83;67904;1276;1016385;-67
2024/04/15 12:06:31;;;;;;;20.40;4.70;;;;;;;19.42;43.78;98182.09;67937;1276;1016244;-67
2024/04/15 12:09:34;;;;;;;24.10;4.80;;;;;;;19.51;43.74;98182.32;67959;1276;1015903;-68
2024/04/15 12:12:37;;;;;;;21.70;4.70;;;;;;;19.61;43.97;98175.50;67920;1276;1015966;-68
2024/04/15 12:15:40;;;;;;;24.80;6.50;;;;;;;19.73;44.36;98175.30;67938;1276;1016619;-68
2024/04/15 12:18:42;;;;;;;27.10;6.00;;;;;;;19.77;43.97;98168.88;67960;1276;1016382;-67
2024/04/15 12:21:45;;;;;;;24.70;5.20;;;;;;;19.72;43.81;98160.20;67943;1276;1016365;-68
2024/04/15 12:24:47;;;;;;;19.30;3.80;;;;;;;19.90;43.40;98162.09;67913;1276;1016543;-67
2024/04/15 12:27:49;;;;;;;15.60;3.10;;;;;;;20.04;43.41;98158.67;67920;1276;1016137;-68
2024/04/15 12:30:51;;;;;;;17.40;3.50;;;;;;;20.09;43.34;98153.63;67899;1276;1016407;-68
2024/04/15 12:33:55;;;;;;;19.00;3.70;;;;;;;20.28;43.21;98141.48;67928;1276;1016523;-69
2024/04/15 12:36:58;;;;;;;17.70;3.70;;;;;;;20.44;43.01;98132.94;67940;1276;1018270;-68
2024/04/15 12:40:00;;;;;;;21.50;4.10;;;;;;;20.53;42.66;98129.60;67953;1276;1019293;-68
2024/04/15 12:43:04;;;;;;;16.00;3.80;;;;;;;20.49;42.24;98126.11;67938;1276;1016740;-67
2024/04/15 12:46:06;;;;;;;24.90;4.20;;;;;;;20.63;42.46;98120.14;67916;1276;1016380;-68
2024/04/15 12:49:08;;;;;;;20.60;4.80;;;;;;;20.63;42.18;98126.64;67940;1276;1016475;-67
2024/04/15 12:52:10;;;;;;;18.60;4.20;;;;;;;20.63;41.72;98123.70;67954;1276;1016787;-68
2024/04/15 12:55:13;;;;;;;15.40;3.20;;;;;;;20.21;40.91;98107.77;67968;1276;1016459;-68
2024/04/15 12:58:15;;;;;;;21.90;4.40;;;;;;;19.68;40.72;98109.06;67938;1276;1016386;-68
2024/04/15 13:01:17;;;;;;;13.70;3.00;;;;;;;19.40;41.96;98112.75;67915;1276;1016375;-68
2024/04/15 13:04:19;;;;;;;21.60;3.90;;;;;;;19.47;41.79;98102.27;67912;1276;1016553;-68
2024/04/15 13:07:21;;;;;;;17.10;3.70;;;;;;;19.64;42.23;98098.59;67908;1276;1018846;-68
2024/04/15 13:10:23;;;;;;;20.00;4.00;;;;;;;19.74;42.08;98098.87;67879;1276;1016414;-68
2024/04/15 13:13:26;;;;;;;22.40;3.90;;;;;;;19.69;41.78;98087.77;67909;1276;1018489;-68
2024/04/15 13:16:28;;;;;;;18.50;3.30;;;;;;;19.63;42.21;98084.60;67898;1276;1016945;-68
2024/04/15 13:19:30;;;;;;;19.60;3.80;;;;;;;19.65;42.52;98081.64;67926;1276;1016391;-68
2024/04/15 13:22:32;;;;;;;17.10;2.90;;;;;;;19.68;42.44;98070.29;67923;1276;1016454;-68
2024/04/15 13:25:34;;;;;;;35.70;9.10;;;;;;;19.68;42.36;98058.21;67932;1276;1018945;-68
2024/04/15 13:28:37;;;;;;;44.90;14.60;;;;;;;19.80;42.45;98042.37;67916;1276;1016478;-68
2024/04/15 13:31:39;;;;;;;;;;;;;;;20.03;42.32;98039.89;67921;1276;1015991;-68
2024/04/15 13:34:42;;;;;;;23.80;5.70;;;;;;;20.13;42.03;98041.05;67883;1276;1016315;-68
2024/04/15 13:37:44;;;;;;;;;;;;;;;20.20;41.69;98035.33;67897;1276;1016585;-68
2024/04/15 13:40:46;;;;;;;21.70;5.10;;;;;;;20.16;41.37;98038.92;67877;1276;1016391;-68
2024/04/15 13:43:49;;;;;;;25.20;6.30;;;;;;;20.02;41.40;98045.79;67931;1276;1016512;-68
2024/04/15 13:46:51;;;;;;;29.70;9.20;;;;;;;20.02;41.52;98028.09;67931;1276;1016399;-67